Time;durP1;ratioP1;P1;durP2;ratioP2;P2;SDS_P1;SDS_P2;PMS_P1;PMS_P2;Temp;Humidity;BMP_temperature;BMP_pressure;BME280_temperature;BME280_humidity;BME280_pressure;Samples;Min_cycle;Max_cycle;Signal;HPM_P1;HPM_P2
2023/10/16 00:02:28;;;;;;;0.00;0.00;;;;;;;17.36;100.00;102272.13;10452905;28;20052;-82
2023/10/16 00:07:30;;;;;;;0.15;0.15;;;;;;;16.73;100.00;102276.88;10452399;28;20479;-81
2023/10/16 00:12:31;;;;;;;0.00;0.00;;;;;;;16.22;100.00;102284.38;10442634;28;20056;-82
2023/10/16 00:17:33;;;;;;;0.03;0.03;;;;;;;15.26;100.00;102286.13;10446327;28;20169;-81
2023/10/16 00:22:35;;;;;;;0.00;0.00;;;;;;;15.70;100.00;102279.56;10451628;28;20567;-81
2023/10/16 00:27:40;;;;;;;0.25;0.25;;;;;;;15.10;100.00;102275.28;10451630;28;20059;-82
2023/10/16 00:32:42;;;;;;;0.00;0.00;;;;;;;15.72;100.00;102282.19;10462322;28;20044;-81
2023/10/16 00:37:43;;;;;;;0.10;0.08;;;;;;;15.21;100.00;102281.69;10451152;28;20132;-81
2023/10/16 00:42:45;;;;;;;0.38;0.22;;;;;;;15.14;100.00;102277.16;10443203;28;20488;-81
2023/10/16 00:47:47;;;;;;;0.00;0.00;;;;;;;15.27;100.00;102264.50;10426919;28;20409;-81
2023/10/16 00:52:49;;;;;;;0.00;0.00;;;;;;;15.96;100.00;102275.91;10450578;28;20103;-81
2023/10/16 00:57:51;;;;;;;0.08;0.00;;;;;;;16.12;100.00;102278.03;10444006;28;20675;-82
2023/10/16 01:02:53;;;;;;;0.00;0.00;;;;;;;15.92;100.00;102274.06;10432040;28;20464;-81
2023/10/16 01:07:54;;;;;;;0.28;0.10;;;;;;;16.09;100.00;102275.38;10449947;28;20130;-81
2023/10/16 01:12:56;;;;;;;2.40;0.40;;;;;;;15.46;100.00;102271.97;10428644;28;20055;-81
2023/10/16 01:17:58;;;;;;;0.30;0.28;;;;;;;15.85;100.00;102271.31;10433229;28;20045;-81
2023/10/16 01:23:04;;;;;;;1.55;0.45;;;;;;;16.32;100.00;102264.66;10449952;28;20041;-81
2023/10/16 01:28:06;;;;;;;0.00;0.00;;;;;;;16.55;100.00;102246.13;10432563;28;20053;-81
2023/10/16 01:33:08;;;;;;;0.45;0.22;;;;;;;17.64;100.00;102247.47;10444494;28;20477;-81
2023/10/16 01:38:16;;;;;;;1.05;0.30;;;;;;;17.03;100.00;102247.19;10449153;28;20136;-81
2023/10/16 01:43:19;;;;;;;0.13;0.13;;;;;;;17.60;100.00;102237.84;10448335;28;20041;-81
2023/10/16 01:48:21;;;;;;;0.00;0.00;;;;;;;17.18;100.00;102238.78;10447711;28;20053;-81
2023/10/16 01:53:26;;;;;;;0.00;0.00;;;;;;;16.62;100.00;102233.25;10445921;28;20049;-81
2023/10/16 01:58:30;;;;;;;0.10;0.08;;;;;;;17.12;100.00;102234.34;10431958;28;20045;-81
2023/10/16 02:03:32;;;;;;;0.00;0.00;;;;;;;16.98;100.00;102241.00;10440261;28;20125;-81
2023/10/16 02:08:34;;;;;;;0.25;0.25;;;;;;;15.51;100.00;102241.81;10447558;28;20563;-81
2023/10/16 02:13:36;;;;;;;0.13;0.13;;;;;;;15.46;100.00;102232.16;10449392;28;20033;-81
2023/10/16 02:18:44;;;;;;;0.00;0.00;;;;;;;16.02;100.00;102218.88;10447331;28;20136;-82
2023/10/16 02:23:46;;;;;;;1.45;0.32;;;;;;;16.54;100.00;102206.19;10446992;28;20098;-81
2023/10/16 02:28:53;;;;;;;0.35;0.35;;;;;;;17.19;100.00;102217.09;10447844;28;20052;-81
2023/10/16 02:34:09;;;;;;;0.30;0.15;;;;;;;17.40;100.00;102225.31;10441310;28;20044;-82
2023/10/16 02:39:27;;;;;;;12.13;0.80;;;;;;;16.48;100.00;102219.97;10444204;28;20052;-81
2023/10/16 02:44:29;;;;;;;0.60;0.32;;;;;;;17.72;100.00;102222.44;10446807;28;20076;-82
2023/10/16 02:49:33;;;;;;;0.20;0.10;;;;;;;17.40;100.00;102222.72;10426220;28;20059;-81
2023/10/16 02:54:35;;;;;;;0.38;0.10;;;;;;;16.47;100.00;102231.22;10430123;28;20041;-81
2023/10/16 02:59:38;;;;;;;0.10;0.10;;;;;;;16.74;100.00;102227.44;10430167;28;20049;-82
2023/10/16 03:04:40;;;;;;;0.25;0.20;;;;;;;16.76;100.00;102223.16;10449746;28;20033;-81
2023/10/16 03:09:43;;;;;;;0.10;0.10;;;;;;;16.43;100.00;102225.91;10422007;28;20084;-81
2023/10/16 03:14:46;;;;;;;0.00;0.00;;;;;;;17.04;100.00;102220.28;10446552;28;20037;-81
2023/10/16 03:19:48;;;;;;;0.20;0.20;;;;;;;16.74;100.00;102222.25;10446171;28;20045;-81
2023/10/16 03:24:52;;;;;;;0.47;0.10;;;;;;;17.91;100.00;102225.31;10436382;28;20123;-81
2023/10/16 03:29:55;;;;;;;0.10;0.10;;;;;;;17.60;100.00;102224.84;10429386;28;20413;-81
2023/10/16 03:34:58;;;;;;;0.05;0.05;;;;;;;17.69;100.00;102217.16;10451516;28;20389;-81
2023/10/16 03:40:04;;;;;;;0.00;0.00;;;;;;;17.83;100.00;102216.53;10453960;28;20362;-81
2023/10/16 03:45:06;;;;;;;0.00;0.00;;;;;;;17.89;100.00;102216.63;10435631;28;20407;-81
2023/10/16 03:50:09;;;;;;;0.10;0.10;;;;;;;17.04;100.00;102228.09;10436850;28;20048;-80
2023/10/16 03:55:24;;;;;;;0.35;0.35;;;;;;;17.00;100.00;102224.56;10443323;28;20139;-81
2023/10/16 04:00:58;;;;;;;0.00;0.00;;;;;;;17.11;100.00;102228.25;10436651;28;20075;-81
2023/10/16 04:06:01;;;;;;;0.20;0.10;;;;;;;16.80;100.00;102222.38;10451111;28;20080;-81
2023/10/16 04:11:03;;;;;;;0.15;0.15;;;;;;;16.65;100.00;102219.44;10448221;28;20049;-81
2023/10/16 04:31:45;;;;;;;0.10;0.10;;;;;;;16.60;100.00;102188.16;10467120;28;20061;-81
2023/10/16 04:47:41;;;;;;;0.00;0.00;;;;;;;16.72;100.00;102182.28;10451717;28;20630;-81
2023/10/16 04:58:27;;;;;;;0.00;0.00;;;;;;;17.53;100.00;102168.25;10451058;28;20477;-81
2023/10/16 05:03:35;;;;;;;0.00;0.00;;;;;;;17.16;100.00;102167.59;10448876;28;20404;-81
2023/10/16 06:17:51;;;;;;;1.55;0.98;;;;;;;17.25;100.00;102184.25;10435999;28;20045;-81
2023/10/16 06:22:53;;;;;;;1.10;0.40;;;;;;;18.07;100.00;102185.66;10447291;28;20049;-81
2023/10/16 06:27:55;;;;;;;0.25;0.08;;;;;;;17.91;100.00;102178.41;10429063;28;20041;-80
2023/10/16 06:32:58;;;;;;;0.47;0.47;;;;;;;18.23;100.00;102184.16;10430268;28;20595;-82
2023/10/16 06:38:00;;;;;;;0.08;0.08;;;;;;;17.76;100.00;102187.72;10429186;28;20137;-81
2023/10/16 06:43:13;;;;;;;0.03;0.03;;;;;;;17.94;100.00;102191.50;10431737;28;20499;-81
2023/10/16 06:48:15;;;;;;;0.03;0.03;;;;;;;18.21;100.00;102191.09;10445179;28;20040;-82
2023/10/16 06:53:18;;;;;;;0.30;0.10;;;;;;;17.90;100.00;102195.78;10456957;28;20507;-81
2023/10/16 06:58:23;;;;;;;0.00;0.00;;;;;;;18.52;100.00;102196.75;10423573;28;20558;-81
2023/10/16 07:03:25;;;;;;;0.05;0.03;;;;;;;18.34;100.00;102192.16;10420106;28;20051;-81
2023/10/16 07:08:26;;;;;;;0.10;0.10;;;;;;;18.03;100.00;102196.91;10423935;28;20529;-81
2023/10/16 07:13:29;;;;;;;0.05;0.05;;;;;;;18.71;100.00;102202.19;10419358;28;20050;-81
2023/10/16 07:18:33;;;;;;;0.00;0.00;;;;;;;17.81;100.00;102193.03;10427604;28;20191;-81
2023/10/16 07:23:37;;;;;;;0.32;0.13;;;;;;;18.11;100.00;102191.78;10420878;28;20504;-80
2023/10/16 07:28:39;;;;;;;0.35;0.20;;;;;;;18.84;100.00;102190.16;10435638;28;20041;-81
2023/10/16 07:33:44;;;;;;;0.08;0.08;;;;;;;18.74;100.00;102188.28;10428802;28;20467;-81
2023/10/16 07:38:48;;;;;;;0.00;0.00;;;;;;;18.99;100.00;102192.09;10441271;28;20053;-81
2023/10/16 07:43:57;;;;;;;0.10;0.10;;;;;;;17.70;100.00;102198.06;10439866;28;20068;-81
2023/10/16 07:49:09;;;;;;;0.00;0.00;;;;;;;18.12;100.00;102200.50;10423519;28;20052;-81
2023/10/16 07:54:11;;;;;;;0.00;0.00;;;;;;;18.95;100.00;102195.53;10432754;28;20045;-81
2023/10/16 07:59:18;;;;;;;0.15;0.15;;;;;;;18.49;100.00;102201.91;10440167;28;20487;-81
2023/10/16 08:14:31;;;;;;;0.20;0.00;;;;;;;19.52;100.00;102210.94;10439490;28;20095;-81
2023/10/16 08:19:36;;;;;;;0.25;0.25;;;;;;;19.68;100.00;102209.34;10419244;28;20055;-82
2023/10/16 08:24:43;;;;;;;1.35;0.40;;;;;;;19.89;100.00;102201.72;10431384;28;20417;-81
2023/10/16 08:29:59;;;;;;;0.17;0.17;;;;;;;19.57;100.00;102202.28;10413457;28;20049;-81
2023/10/16 08:35:01;;;;;;;0.20;0.10;;;;;;;20.71;100.00;102209.19;10433319;28;20041;-81
2023/10/16 08:40:20;;;;;;;0.20;0.10;;;;;;;20.32;100.00;102202.88;10448549;28;20144;-82
2023/10/16 08:45:25;;;;;;;0.00;0.00;;;;;;;20.12;100.00;102221.94;10441561;28;20045;-82
2023/10/16 08:50:43;;;;;;;0.00;0.00;;;;;;;19.48;100.00;102223.09;10429316;28;20041;-82
2023/10/16 08:55:45;;;;;;;0.00;0.00;;;;;;;20.23;100.00;102220.25;10434882;28;20072;-82
2023/10/16 09:00:48;;;;;;;0.15;0.10;;;;;;;20.19;100.00;102223.75;10426071;28;20494;-81
2023/10/16 09:05:51;;;;;;;0.00;0.00;;;;;;;21.30;100.00;102214.66;10419955;28;20053;-82
2023/10/16 09:10:53;;;;;;;0.00;0.00;;;;;;;20.42;100.00;102220.41;10441339;28;20538;-83
2023/10/16 09:15:57;;;;;;;0.00;0.00;;;;;;;20.08;100.00;102225.38;10427833;28;20072;-81
2023/10/16 09:21:00;;;;;;;0.00;0.00;;;;;;;19.83;100.00;102225.19;10424345;28;20128;-82
2023/10/16 09:26:06;;;;;;;0.15;0.08;;;;;;;20.29;100.00;102220.28;10439821;28;20492;-82
2023/10/16 09:31:08;;;;;;;0.00;0.00;;;;;;;20.52;100.00;102222.19;10435997;28;20084;-81
2023/10/16 09:36:17;;;;;;;0.10;0.10;;;;;;;21.39;100.00;102212.91;10436190;28;20140;-82
2023/10/16 09:51:45;;;;;;;0.20;0.00;;;;;;;22.45;100.00;102216.41;10444788;28;20049;-81
2023/10/16 09:56:59;;;;;;;0.00;0.00;;;;;;;21.96;100.00;102219.09;10439510;28;20045;-81
2023/10/16 10:02:16;;;;;;;0.00;0.00;;;;;;;22.14;100.00;102211.22;10429399;28;20049;-81
2023/10/16 10:07:34;;;;;;;1.40;0.75;;;;;;;22.46;100.00;102210.28;10431472;28;20494;-82
2023/10/16 10:12:42;;;;;;;0.00;0.00;;;;;;;22.96;100.00;102215.34;10428752;28;20053;-81
2023/10/16 10:17:46;;;;;;;0.00;0.00;;;;;;;23.51;100.00;102221.16;10432976;28;20863;-82
2023/10/16 10:22:53;;;;;;;0.10;0.00;;;;;;;22.87;100.00;102216.25;10435502;28;20041;-82
2023/10/16 10:28:09;;;;;;;0.00;0.00;;;;;;;21.90;100.00;102225.22;10423012;28;20047;-82
2023/10/16 10:33:12;;;;;;;0.00;0.00;;;;;;;20.94;100.00;102225.03;10439389;28;20059;-81
2023/10/16 10:38:24;;;;;;;0.00;0.00;;;;;;;20.67;100.00;102233.59;10435980;28;20538;-82
2023/10/16 10:43:48;;;;;;;0.00;0.00;;;;;;;20.67;100.00;102225.75;10437655;28;20143;-81
2023/10/16 10:48:54;;;;;;;0.00;0.00;;;;;;;21.26;100.00;102218.16;10430798;28;20049;-81
2023/10/16 10:53:58;;;;;;;0.00;0.00;;;;;;;21.76;100.00;102206.88;10421891;28;20451;-81
2023/10/16 10:59:08;;;;;;;0.10;0.10;;;;;;;21.42;100.00;102201.56;10435977;28;20040;-81
2023/10/16 11:04:15;;;;;;;;;;;;;;;22.06;100.00;102197.22;10425276;28;20856;-82
2023/10/16 11:09:26;;;;;;;0.00;0.00;;;;;;;21.38;100.00;102195.44;10426021;28;19929;-82
2023/10/16 11:14:44;;;;;;;0.00;0.00;;;;;;;23.81;100.00;102187.59;10426020;28;20399;-82
2023/10/16 11:19:49;;;;;;;0.00;0.00;;;;;;;23.82;100.00;102173.56;10396620;28;20103;-82
2023/10/16 11:24:53;;;;;;;0.00;0.00;;;;;;;23.29;100.00;102168.72;10431941;28;20045;-82
2023/10/16 11:29:57;;;;;;;0.00;0.00;;;;;;;23.04;100.00;102171.50;10421892;28;20061;-82
2023/10/16 11:35:12;;;;;;;0.00;0.00;;;;;;;23.04;100.00;102176.75;10441438;28;20041;-83
2023/10/16 11:40:24;;;;;;;0.00;0.00;;;;;;;22.70;100.00;102166.41;10428834;28;20084;-82
2023/10/16 11:45:30;;;;;;;0.00;0.00;;;;;;;22.93;100.00;102170.69;10425915;28;20076;-81
2023/10/16 11:50:40;;;;;;;0.00;0.00;;;;;;;22.38;100.00;102163.91;10423908;28;20096;-82
2023/10/16 11:55:42;;;;;;;0.00;0.00;;;;;;;22.00;100.00;102152.63;10427017;28;20076;-81
2023/10/16 12:00:57;;;;;;;0.00;0.00;;;;;;;22.18;100.00;102152.56;10432815;28;20470;-79
2023/10/16 12:05:59;;;;;;;0.28;0.10;;;;;;;22.18;100.00;102143.84;10440817;28;20044;-81
2023/10/16 12:11:03;;;;;;;0.00;0.00;;;;;;;21.99;100.00;102143.00;10437931;28;20060;-81
2023/10/16 12:16:05;;;;;;;0.00;0.00;;;;;;;22.33;100.00;102137.66;10440873;28;20041;-80
2023/10/16 12:21:16;;;;;;;0.43;0.22;;;;;;;22.52;100.00;102145.50;10427198;28;20051;-80
2023/10/16 12:26:19;;;;;;;0.00;0.00;;;;;;;22.39;100.00;102145.53;10435981;28;20044;-81
2023/10/16 12:31:21;;;;;;;0.00;0.00;;;;;;;22.29;100.00;102143.81;10428984;28;20092;-81
2023/10/16 12:36:23;;;;;;;0.00;0.00;;;;;;;22.74;100.00;102141.91;10431469;28;20053;-81
2023/10/16 12:41:26;;;;;;;0.00;0.00;;;;;;;22.27;100.00;102140.31;10446307;28;20355;-82
2023/10/16 12:46:28;;;;;;;0.00;0.00;;;;;;;23.00;100.00;102127.72;10438613;28;20052;-82
2023/10/16 12:51:30;;;;;;;0.00;0.00;;;;;;;23.51;100.00;102122.09;10442623;28;20048;-82
2023/10/16 12:56:35;;;;;;;0.05;0.05;;;;;;;23.40;100.00;102111.69;10432125;28;20403;-82
2023/10/16 13:01:40;;;;;;;0.00;0.00;;;;;;;22.54;100.00;102106.97;10431876;28;20489;-81
2023/10/16 13:06:43;;;;;;;0.00;0.00;;;;;;;22.33;100.00;102112.28;10428715;28;20485;-82
2023/10/16 13:11:46;;;;;;;0.00;0.00;;;;;;;22.84;100.00;102113.81;10444683;28;20123;-82
2023/10/16 13:16:53;;;;;;;0.00;0.00;;;;;;;23.17;100.00;102105.69;10463267;28;20064;-81
2023/10/16 13:21:55;;;;;;;0.00;0.00;;;;;;;23.09;99.12;102111.88;10426480;28;20056;-82
2023/10/16 13:26:57;;;;;;;0.00;0.00;;;;;;;23.44;99.96;102108.13;10427249;28;20045;-82
2023/10/16 13:32:00;;;;;;;0.00;0.00;;;;;;;23.26;100.00;102108.28;10436868;28;20522;-82
2023/10/16 13:37:09;;;;;;;0.00;0.00;;;;;;;22.92;99.48;102103.22;10432905;28;20480;-82
2023/10/16 13:42:14;;;;;;;0.00;0.00;;;;;;;23.47;97.50;102095.84;10445028;28;20047;-82
2023/10/16 13:47:16;;;;;;;0.00;0.00;;;;;;;22.56;99.12;102099.94;10430516;28;20499;-83
2023/10/16 13:52:18;;;;;;;0.35;0.35;;;;;;;22.86;98.42;102108.53;10442399;28;20408;-82
2023/10/16 13:57:22;;;;;;;0.00;0.00;;;;;;;23.66;98.21;102092.13;10441562;28;20064;-82
2023/10/16 14:02:24;;;;;;;0.10;0.10;;;;;;;23.19;100.00;102096.94;10431753;28;20041;-82
2023/10/16 14:07:26;;;;;;;0.00;0.00;;;;;;;23.58;96.27;102086.97;10440557;28;20104;-82
2023/10/16 14:12:32;;;;;;;0.10;0.00;;;;;;;22.62;99.88;102099.91;10446160;28;20060;-82
2023/10/16 14:17:38;;;;;;;0.00;0.00;;;;;;;23.27;98.94;102094.28;10428807;28;20072;-82
2023/10/16 14:22:47;;;;;;;0.00;0.00;;;;;;;21.73;100.00;102095.84;10440635;28;20588;-82
2023/10/16 14:27:49;;;;;;;0.00;0.00;;;;;;;22.26;100.00;102091.31;10430163;28;20048;-82
2023/10/16 14:32:51;;;;;;;0.00;0.00;;;;;;;23.20;100.00;102082.03;10428826;28;20090;-82
2023/10/16 14:37:54;;;;;;;0.00;0.00;;;;;;;23.22;100.00;102085.53;10434069;28;20152;-82
2023/10/16 14:42:56;;;;;;;0.00;0.00;;;;;;;23.17;100.00;102082.03;10443294;28;20172;-82
2023/10/16 14:47:58;;;;;;;0.00;0.00;;;;;;;22.88;100.00;102081.38;10412023;28;20053;-82
2023/10/16 14:53:00;;;;;;;0.00;0.00;;;;;;;23.43;100.00;102066.06;10424048;28;20053;-82
2023/10/16 14:58:03;;;;;;;0.00;0.00;;;;;;;23.71;100.00;102063.16;10417990;28;20042;-81
2023/10/16 15:03:25;;;;;;;0.35;0.20;;;;;;;23.76;100.00;102064.84;10436276;28;20053;-82
2023/10/16 15:08:27;;;;;;;0.00;0.00;;;;;;;23.43;100.00;102055.56;10432386;28;20050;-82
2023/10/16 15:13:29;;;;;;;0.00;0.00;;;;;;;23.34;100.00;102064.41;10440827;28;20055;-82
2023/10/16 15:18:32;;;;;;;0.00;0.00;;;;;;;22.75;100.00;102070.06;10417644;28;20046;-82
2023/10/16 15:23:35;;;;;;;0.00;0.00;;;;;;;23.31;100.00;102059.16;10421716;28;20045;-82
2023/10/16 15:28:37;;;;;;;0.00;0.00;;;;;;;23.55;100.00;102062.44;10455478;28;20136;-82
2023/10/16 15:33:43;;;;;;;0.00;0.00;;;;;;;23.73;100.00;102053.50;10443637;28;20053;-82
2023/10/16 15:38:45;;;;;;;0.00;0.00;;;;;;;23.87;100.00;102054.22;10426670;28;20045;-82
2023/10/16 15:43:47;;;;;;;0.00;0.00;;;;;;;24.13;100.00;102060.06;10450649;28;20041;-82
2023/10/16 15:48:55;;;;;;;0.00;0.00;;;;;;;23.72;100.00;102055.22;10450357;28;20029;-82
2023/10/16 15:53:58;;;;;;;0.00;0.00;;;;;;;23.39;100.00;102044.19;10439749;28;20492;-82
2023/10/16 15:59:00;;;;;;;0.10;0.10;;;;;;;24.05;100.00;102042.63;10429453;28;20124;-82
2023/10/16 16:04:02;;;;;;;0.00;0.00;;;;;;;23.81;100.00;102048.13;10421102;28;20135;-82
2023/10/16 16:09:12;;;;;;;0.00;0.00;;;;;;;23.12;100.00;102048.75;10438953;28;20155;-82
2023/10/16 16:14:14;;;;;;;0.00;0.00;;;;;;;23.02;100.00;102049.75;10438994;28;20135;-82
2023/10/16 16:19:38;;;;;;;0.00;0.00;;;;;;;23.26;100.00;102046.06;10419805;28;20045;-82
2023/10/16 16:24:41;;;;;;;0.00;0.00;;;;;;;23.11;100.00;102052.31;10421450;28;20508;-82
2023/10/16 16:29:43;;;;;;;0.00;0.00;;;;;;;22.87;100.00;102052.47;10433087;28;20053;-82
2023/10/16 16:34:45;;;;;;;0.00;0.00;;;;;;;22.52;100.00;102066.72;10447116;28;20073;-82
2023/10/16 16:39:47;;;;;;;0.00;0.00;;;;;;;22.97;100.00;102060.28;10440312;28;20045;-82
2023/10/16 16:44:56;;;;;;;0.00;0.00;;;;;;;22.21;100.00;102061.59;10452275;28;20033;-81
2023/10/16 16:49:57;;;;;;;0.00;0.00;;;;;;;21.98;100.00;102070.41;10436219;28;20500;-82
2023/10/16 16:54:59;;;;;;;0.00;0.00;;;;;;;21.85;100.00;102072.19;10445102;28;20489;-81
2023/10/16 17:00:04;;;;;;;0.00;0.00;;;;;;;21.49;100.00;102066.97;10445884;28;20047;-82
2023/10/16 17:05:11;;;;;;;0.00;0.00;;;;;;;21.58;100.00;102070.50;10435477;28;20134;-82
2023/10/16 17:10:13;;;;;;;0.00;0.00;;;;;;;21.24;100.00;102080.13;10434328;28;20143;-82
2023/10/16 17:15:19;;;;;;;0.00;0.00;;;;;;;20.95;100.00;102084.47;10448662;28;20041;-82
2023/10/16 17:20:21;;;;;;;0.00;0.00;;;;;;;21.19;100.00;102079.22;10442596;28;20044;-82
2023/10/16 17:25:23;;;;;;;0.00;0.00;;;;;;;20.99;100.00;102080.97;10439881;28;20125;-82
2023/10/16 17:30:25;;;;;;;0.00;0.00;;;;;;;20.51;100.00;102079.09;10436480;28;20049;-82
2023/10/16 17:35:33;;;;;;;0.00;0.00;;;;;;;20.26;100.00;102073.75;10442574;28;20048;-82
2023/10/16 17:40:36;;;;;;;0.00;0.00;;;;;;;20.02;100.00;102068.41;10446687;28;20139;-81
2023/10/16 17:45:38;;;;;;;0.75;0.65;;;;;;;20.16;100.00;102077.19;10448948;28;20044;-81
2023/10/16 17:50:43;;;;;;;0.00;0.00;;;;;;;19.84;100.00;102074.38;10437696;28;20488;-81
2023/10/16 17:55:45;;;;;;;0.52;0.28;;;;;;;19.77;100.00;102071.72;10425714;28;20141;-81
2023/10/16 18:00:52;;;;;;;0.00;0.00;;;;;;;19.76;100.00;102069.13;10447251;28;20053;-82
2023/10/16 18:05:54;;;;;;;0.00;0.00;;;;;;;20.06;100.00;102072.81;10448742;28;20118;-82
2023/10/16 18:10:59;;;;;;;0.00;0.00;;;;;;;19.69;100.00;102078.66;10441388;28;20140;-81
2023/10/16 18:16:01;;;;;;;0.00;0.00;;;;;;;19.51;100.00;102087.22;10446801;28;20563;-81
2023/10/16 18:21:05;;;;;;;0.00;0.00;;;;;;;18.90;100.00;102088.41;10426140;28;20504;-82
2023/10/16 18:26:08;;;;;;;0.00;0.00;;;;;;;19.31;100.00;102084.44;10442673;28;20400;-82
2023/10/16 18:31:12;;;;;;;0.00;0.00;;;;;;;19.66;100.00;102074.28;10436630;28;20386;-81
2023/10/16 18:36:15;;;;;;;0.05;0.00;;;;;;;19.33;100.00;102078.38;10426986;28;20140;-82
2023/10/16 18:41:17;;;;;;;0.00;0.00;;;;;;;19.49;100.00;102073.28;10441081;28;20603;-81
2023/10/16 18:46:20;;;;;;;0.00;0.00;;;;;;;19.32;100.00;102076.63;10430354;28;20442;-82
2023/10/16 18:51:25;;;;;;;0.10;0.10;;;;;;;19.83;100.00;102068.28;10430584;28;20049;-82
2023/10/16 18:56:29;;;;;;;0.00;0.00;;;;;;;19.29;100.00;102073.09;10446920;28;20396;-82
2023/10/16 19:01:33;;;;;;;0.00;0.00;;;;;;;18.71;100.00;102071.66;10447351;28;20045;-82
2023/10/16 19:06:36;;;;;;;0.00;0.00;;;;;;;18.81;100.00;102067.41;10419279;28;20091;-82
2023/10/16 19:11:39;;;;;;;0.00;0.00;;;;;;;19.60;100.00;102045.47;10453555;28;20157;-82
2023/10/16 19:16:41;;;;;;;0.00;0.00;;;;;;;19.29;100.00;102071.38;10455474;28;20045;-82
2023/10/16 19:21:43;;;;;;;0.00;0.00;;;;;;;19.31;100.00;102084.44;10444757;28;20041;-82
2023/10/16 19:26:45;;;;;;;0.32;0.25;;;;;;;17.17;100.00;102101.59;10445152;28;20135;-82
2023/10/16 19:31:48;;;;;;;0.20;0.10;;;;;;;18.48;100.00;102093.16;10445849;28;20041;-82
2023/10/16 19:36:50;;;;;;;0.10;0.10;;;;;;;18.95;100.00;102091.94;10444179;28;20038;-82
2023/10/16 19:41:52;;;;;;;0.00;0.00;;;;;;;18.79;100.00;102092.66;10461110;28;20051;-82
2023/10/16 19:46:54;;;;;;;0.00;0.00;;;;;;;19.08;100.00;102092.09;10448731;28;20037;-82
2023/10/16 19:51:56;;;;;;;0.10;0.10;;;;;;;18.47;100.00;102090.53;10451790;28;20103;-82
2023/10/16 19:56:58;;;;;;;0.00;0.00;;;;;;;18.57;100.00;102079.38;10449454;28;20049;-81
2023/10/16 20:02:00;;;;;;;1.55;0.20;;;;;;;18.24;100.00;102085.91;10431069;28;20123;-81
2023/10/16 20:07:02;;;;;;;0.00;0.00;;;;;;;18.82;100.00;102090.06;10442349;28;20048;-82
2023/10/16 20:12:08;;;;;;;0.00;0.00;;;;;;;18.88;100.00;102100.56;10441179;28;20056;-82
2023/10/16 20:17:20;;;;;;;0.00;0.00;;;;;;;17.96;100.00;102093.38;10438176;28;20049;-82
2023/10/16 20:22:21;;;;;;;0.00;0.00;;;;;;;18.30;100.00;102091.19;10442454;28;20488;-82
2023/10/16 20:27:29;;;;;;;0.00;0.00;;;;;;;18.37;100.00;102087.81;10443199;28;20052;-82
2023/10/16 20:32:31;;;;;;;0.10;0.10;;;;;;;18.45;100.00;102080.09;10443378;28;20048;-82
2023/10/16 20:37:35;;;;;;;1.20;1.10;;;;;;;18.58;100.00;102075.88;10434872;28;20041;-81
2023/10/16 20:42:38;;;;;;;0.00;0.00;;;;;;;18.10;100.00;102075.28;10447514;28;20557;-82
2023/10/16 20:47:41;;;;;;;0.35;0.20;;;;;;;18.09;100.00;102081.38;10444434;28;20045;-82
2023/10/16 20:52:47;;;;;;;0.00;0.00;;;;;;;18.42;100.00;102085.25;10430355;28;20045;-82
2023/10/16 20:57:50;;;;;;;0.00;0.00;;;;;;;18.50;100.00;102093.19;10446748;28;20037;-82
2023/10/16 21:02:57;;;;;;;0.00;0.00;;;;;;;18.27;100.00;102085.97;10430544;28;20467;-82
2023/10/16 21:07:59;;;;;;;0.10;0.00;;;;;;;18.42;100.00;102084.41;10435778;28;20048;-82
2023/10/16 21:13:03;;;;;;;0.00;0.00;;;;;;;18.26;100.00;102080.69;10425402;28;20051;-82
2023/10/16 21:18:05;;;;;;;1.08;0.20;;;;;;;16.69;100.00;102087.69;10450421;28;20136;-82
2023/10/16 21:23:07;;;;;;;0.00;0.00;;;;;;;18.02;100.00;102085.63;10445054;28;20041;-82
2023/10/16 21:28:08;;;;;;;0.13;0.10;;;;;;;17.24;100.00;102095.66;10423666;28;20055;-82
2023/10/16 21:33:10;;;;;;;0.00;0.00;;;;;;;17.52;100.00;102093.53;10430021;28;20048;-82
2023/10/16 21:38:12;;;;;;;0.00;0.00;;;;;;;17.65;100.00;102089.41;10445919;28;20037;-82
2023/10/16 21:43:13;;;;;;;0.00;0.00;;;;;;;17.60;100.00;102084.13;10423008;28;20052;-81
2023/10/16 21:48:15;;;;;;;0.00;0.00;;;;;;;17.42;100.00;102082.09;10443488;28;20045;-82
2023/10/16 21:53:22;;;;;;;0.00;0.00;;;;;;;17.01;100.00;102090.94;10447556;28;20382;-81
2023/10/16 21:58:24;;;;;;;0.00;0.00;;;;;;;17.61;100.00;102093.66;10442988;28;20072;-82
2023/10/16 22:03:26;;;;;;;0.30;0.08;;;;;;;17.10;100.00;102101.50;10436688;28;20049;-82
2023/10/16 22:08:29;;;;;;;0.38;0.10;;;;;;;16.73;100.00;102099.91;10434994;28;20041;-82
2023/10/16 22:13:32;;;;;;;0.00;0.00;;;;;;;16.96;100.00;102102.97;10426853;28;20045;-81
2023/10/16 22:18:33;;;;;;;0.00;0.00;;;;;;;16.64;100.00;102104.09;10438852;28;20044;-81
2023/10/16 22:23:36;;;;;;;0.00;0.00;;;;;;;17.08;100.00;102103.22;10423367;28;20131;-81
2023/10/16 22:28:41;;;;;;;0.00;0.00;;;;;;;16.65;100.00;102095.44;10418933;28;20029;-81
2023/10/16 22:33:43;;;;;;;0.47;0.15;;;;;;;15.42;100.00;102097.84;10436989;28;20048;-81
2023/10/16 22:38:45;;;;;;;0.17;0.13;;;;;;;15.62;100.00;102096.63;10416864;28;20472;-82
2023/10/16 22:43:50;;;;;;;0.00;0.00;;;;;;;15.41;100.00;102068.41;10413537;28;20056;-82
2023/10/16 22:48:54;;;;;;;0.00;0.00;;;;;;;15.68;100.00;102067.31;10429942;28;20045;-81
2023/10/16 22:53:56;;;;;;;0.10;0.10;;;;;;;16.43;100.00;102055.09;10425956;28;20120;-81
2023/10/16 22:58:58;;;;;;;0.00;0.00;;;;;;;15.99;100.00;102068.03;10429837;28;20041;-82
